sensor_id;sensor_type;location;lat;lon;timestamp;temperature;humidity
73586;DHT22;61865;50.232;18.614;2023-04-03T00:01:01;1.90;99.90
73586;DHT22;61865;50.232;18.614;2023-04-03T00:03:23;1.90;99.90
73586;DHT22;61865;50.232;18.614;2023-04-03T00:05:45;1.90;99.90
73586;DHT22;61865;50.232;18.614;2023-04-03T00:08:07;1.90;99.90
73586;DHT22;61865;50.232;18.614;2023-04-03T00:10:30;1.80;99.90
73586;DHT22;61865;50.232;18.614;2023-04-03T00:12:52;1.80;99.90
73586;DHT22;61865;50.232;18.614;2023-04-03T00:15:15;1.70;99.90
73586;DHT22;61865;50.232;18.614;2023-04-03T00:17:37;1.80;99.90
73586;DHT22;61865;50.232;18.614;2023-04-03T00:19:59;1.80;99.90
73586;DHT22;61865;50.232;18.614;2023-04-03T00:22:21;1.80;99.90
73586;DHT22;61865;50.232;18.614;2023-04-03T00:24:43;1.80;99.90
73586;DHT22;61865;50.232;18.614;2023-04-03T00:27:05;1.80;99.90
73586;DHT22;61865;50.232;18.614;2023-04-03T00:29:27;1.80;99.90
73586;DHT22;61865;50.232;18.614;2023-04-03T00:31:50;1.80;99.90
73586;DHT22;61865;50.232;18.614;2023-04-03T00:34:12;1.90;99.90
73586;DHT22;61865;50.232;18.614;2023-04-03T00:36:34;1.90;99.90
73586;DHT22;61865;50.232;18.614;2023-04-03T00:38:56;1.90;99.90
73586;DHT22;61865;50.232;18.614;2023-04-03T00:41:18;1.90;99.90
73586;DHT22;61865;50.232;18.614;2023-04-03T00:43:40;1.90;99.90
73586;DHT22;61865;50.232;18.614;2023-04-03T00:46:02;1.90;99.90
73586;DHT22;61865;50.232;18.614;2023-04-03T00:48:29;1.90;99.90
73586;DHT22;61865;50.232;18.614;2023-04-03T00:50:52;1.90;99.90
73586;DHT22;61865;50.232;18.614;2023-04-03T00:53:18;1.90;99.90
73586;DHT22;61865;50.232;18.614;2023-04-03T00:55:42;2.00;99.90
73586;DHT22;61865;50.232;18.614;2023-04-03T00:58:05;1.90;99.90
73586;DHT22;61865;50.232;18.614;2023-04-03T01:00:28;1.90;99.90
73586;DHT22;61865;50.232;18.614;2023-04-03T01:02:50;2.00;99.90
73586;DHT22;61865;50.232;18.614;2023-04-03T01:05:16;1.90;99.90
73586;DHT22;61865;50.232;18.614;2023-04-03T01:07:38;1.90;99.90
73586;DHT22;61865;50.232;18.614;2023-04-03T01:10:03;1.90;99.90
73586;DHT22;61865;50.232;18.614;2023-04-03T01:12:27;1.90;99.90
73586;DHT22;61865;50.232;18.614;2023-04-03T01:14:51;1.90;99.90
73586;DHT22;61865;50.232;18.614;2023-04-03T01:17:29;1.90;99.90
73586;DHT22;61865;50.232;18.614;2023-04-03T01:20:02;1.90;99.90
73586;DHT22;61865;50.232;18.614;2023-04-03T01:22:41;1.90;99.90
73586;DHT22;61865;50.232;18.614;2023-04-03T01:25:05;1.90;99.90
73586;DHT22;61865;50.232;18.614;2023-04-03T01:27:27;1.90;99.90
73586;DHT22;61865;50.232;18.614;2023-04-03T01:29:49;1.90;99.90
73586;DHT22;61865;50.232;18.614;2023-04-03T01:32:12;1.90;99.90
73586;DHT22;61865;50.232;18.614;2023-04-03T01:34:34;1.80;99.90
73586;DHT22;61865;50.232;18.614;2023-04-03T01:36:56;1.80;99.90
73586;DHT22;61865;50.232;18.614;2023-04-03T01:39:18;1.80;99.90
73586;DHT22;61865;50.232;18.614;2023-04-03T01:41:40;1.80;99.90
73586;DHT22;61865;50.232;18.614;2023-04-03T01:44:02;1.70;99.90
73586;DHT22;61865;50.232;18.614;2023-04-03T01:46:25;1.70;99.90
73586;DHT22;61865;50.232;18.614;2023-04-03T01:48:49;1.70;99.90
73586;DHT22;61865;50.232;18.614;2023-04-03T01:51:11;1.70;99.90
73586;DHT22;61865;50.232;18.614;2023-04-03T01:53:33;1.70;99.90
73586;DHT22;61865;50.232;18.614;2023-04-03T01:55:55;1.70;99.90
73586;DHT22;61865;50.232;18.614;2023-04-03T01:58:17;1.70;99.90
73586;DHT22;61865;50.232;18.614;2023-04-03T02:00:39;1.70;99.90
73586;DHT22;61865;50.232;18.614;2023-04-03T02:03:01;1.70;99.90
73586;DHT22;61865;50.232;18.614;2023-04-03T02:05:24;1.70;99.90
73586;DHT22;61865;50.232;18.614;2023-04-03T02:07:47;1.70;99.90
73586;DHT22;61865;50.232;18.614;2023-04-03T02:10:09;1.60;99.90
73586;DHT22;61865;50.232;18.614;2023-04-03T02:12:31;1.60;99.90
73586;DHT22;61865;50.232;18.614;2023-04-03T02:14:53;1.60;99.90
73586;DHT22;61865;50.232;18.614;2023-04-03T02:17:15;1.60;99.90
73586;DHT22;61865;50.232;18.614;2023-04-03T02:19:37;1.60;99.90
73586;DHT22;61865;50.232;18.614;2023-04-03T02:22:00;1.50;99.90
73586;DHT22;61865;50.232;18.614;2023-04-03T02:24:22;1.50;99.90
73586;DHT22;61865;50.232;18.614;2023-04-03T02:26:44;1.50;99.90
73586;DHT22;61865;50.232;18.614;2023-04-03T02:29:06;1.50;99.90
73586;DHT22;61865;50.232;18.614;2023-04-03T02:31:28;1.50;99.90
73586;DHT22;61865;50.232;18.614;2023-04-03T02:33:50;1.40;99.90
73586;DHT22;61865;50.232;18.614;2023-04-03T02:36:12;1.50;99.90
73586;DHT22;61865;50.232;18.614;2023-04-03T02:38:35;1.40;99.90
73586;DHT22;61865;50.232;18.614;2023-04-03T02:41:00;1.30;99.90
73586;DHT22;61865;50.232;18.614;2023-04-03T02:43:22;1.30;99.90
73586;DHT22;61865;50.232;18.614;2023-04-03T02:45:44;1.20;99.90
73586;DHT22;61865;50.232;18.614;2023-04-03T02:48:06;1.20;99.90
73586;DHT22;61865;50.232;18.614;2023-04-03T02:50:28;1.10;99.90
73586;DHT22;61865;50.232;18.614;2023-04-03T02:52:50;1.00;99.90
73586;DHT22;61865;50.232;18.614;2023-04-03T02:55:15;1.00;99.90
73586;DHT22;61865;50.232;18.614;2023-04-03T02:57:37;0.90;99.90
73586;DHT22;61865;50.232;18.614;2023-04-03T02:59:59;0.80;99.90
73586;DHT22;61865;50.232;18.614;2023-04-03T03:02:20;0.80;99.90
73586;DHT22;61865;50.232;18.614;2023-04-03T03:04:42;0.70;99.90
73586;DHT22;61865;50.232;18.614;2023-04-03T03:07:04;0.60;99.90
73586;DHT22;61865;50.232;18.614;2023-04-03T03:09:27;0.60;99.90
73586;DHT22;61865;50.232;18.614;2023-04-03T03:11:51;0.50;99.90
73586;DHT22;61865;50.232;18.614;2023-04-03T03:14:13;0.50;99.90
73586;DHT22;61865;50.232;18.614;2023-04-03T03:16:35;0.40;99.90
73586;DHT22;61865;50.232;18.614;2023-04-03T03:18:56;0.40;99.90
73586;DHT22;61865;50.232;18.614;2023-04-03T03:21:18;0.30;99.90
73586;DHT22;61865;50.232;18.614;2023-04-03T03:23:40;0.30;99.90
73586;DHT22;61865;50.232;18.614;2023-04-03T03:26:04;0.30;99.90
73586;DHT22;61865;50.232;18.614;2023-04-03T03:28:27;0.30;99.90
73586;DHT22;61865;50.232;18.614;2023-04-03T03:30:50;0.20;99.90
73586;DHT22;61865;50.232;18.614;2023-04-03T03:33:11;0.20;99.90
73586;DHT22;61865;50.232;18.614;2023-04-03T03:35:33;0.20;99.90
73586;DHT22;61865;50.232;18.614;2023-04-03T03:37:55;0.20;99.90
73586;DHT22;61865;50.232;18.614;2023-04-03T03:40:17;0.10;99.90
73586;DHT22;61865;50.232;18.614;2023-04-03T03:42:40;0.10;99.90
73586;DHT22;61865;50.232;18.614;2023-04-03T03:45:04;0.10;99.90
73586;DHT22;61865;50.232;18.614;2023-04-03T03:47:26;0.00;99.90
73586;DHT22;61865;50.232;18.614;2023-04-03T03:49:48;0.00;99.90
73586;DHT22;61865;50.232;18.614;2023-04-03T03:52:09;-0.10;99.90
73586;DHT22;61865;50.232;18.614;2023-04-03T03:54:32;0.00;99.90
73586;DHT22;61865;50.232;18.614;2023-04-03T03:56:53;-0.10;99.90
73586;DHT22;61865;50.232;18.614;2023-04-03T03:59:16;-0.10;99.90
73586;DHT22;61865;50.232;18.614;2023-04-03T04:01:39;-0.10;99.90
73586;DHT22;61865;50.232;18.614;2023-04-03T04:04:01;-0.10;99.90
73586;DHT22;61865;50.232;18.614;2023-04-03T04:06:23;-0.10;99.90
73586;DHT22;61865;50.232;18.614;2023-04-03T04:08:45;-0.20;99.90
73586;DHT22;61865;50.232;18.614;2023-04-03T04:11:07;-0.20;99.90
73586;DHT22;61865;50.232;18.614;2023-04-03T04:13:29;-0.20;99.90
73586;DHT22;61865;50.232;18.614;2023-04-03T04:15:51;-0.20;99.90
73586;DHT22;61865;50.232;18.614;2023-04-03T04:18:15;-0.30;99.90
73586;DHT22;61865;50.232;18.614;2023-04-03T04:20:38;-0.30;99.90
73586;DHT22;61865;50.232;18.614;2023-04-03T04:23:00;-0.30;99.90
73586;DHT22;61865;50.232;18.614;2023-04-03T04:25:22;-0.30;99.90
73586;DHT22;61865;50.232;18.614;2023-04-03T04:27:44;-0.30;99.90
73586;DHT22;61865;50.232;18.614;2023-04-03T04:30:06;-0.30;99.90
73586;DHT22;61865;50.232;18.614;2023-04-03T04:32:29;-0.30;99.90
73586;DHT22;61865;50.232;18.614;2023-04-03T04:34:52;-0.30;99.90
73586;DHT22;61865;50.232;18.614;2023-04-03T04:37:14;-0.40;99.90
73586;DHT22;61865;50.232;18.614;2023-04-03T04:39:36;-0.40;99.90
73586;DHT22;61865;50.232;18.614;2023-04-03T04:41:58;-0.40;99.90
73586;DHT22;61865;50.232;18.614;2023-04-03T04:44:20;-0.40;99.90
73586;DHT22;61865;50.232;18.614;2023-04-03T04:46:41;-0.40;99.90
73586;DHT22;61865;50.232;18.614;2023-04-03T04:49:03;-0.40;99.90
73586;DHT22;61865;50.232;18.614;2023-04-03T04:51:27;-0.40;99.90
73586;DHT22;61865;50.232;18.614;2023-04-03T04:53:49;-0.40;99.90
73586;DHT22;61865;50.232;18.614;2023-04-03T04:56:11;-0.40;99.90
73586;DHT22;61865;50.232;18.614;2023-04-03T04:58:33;-0.40;99.90
73586;DHT22;61865;50.232;18.614;2023-04-03T05:00:58;-0.50;99.90
73586;DHT22;61865;50.232;18.614;2023-04-03T05:03:21;-0.40;99.90
73586;DHT22;61865;50.232;18.614;2023-04-03T05:05:43;-0.40;99.90
73586;DHT22;61865;50.232;18.614;2023-04-03T05:08:07;-0.50;99.90
73586;DHT22;61865;50.232;18.614;2023-04-03T05:10:29;-0.50;99.90
73586;DHT22;61865;50.232;18.614;2023-04-03T05:12:51;-0.50;99.90
73586;DHT22;61865;50.232;18.614;2023-04-03T05:15:13;-0.50;99.90
73586;DHT22;61865;50.232;18.614;2023-04-03T05:17:35;-0.50;99.90
73586;DHT22;61865;50.232;18.614;2023-04-03T05:19:57;-0.50;99.90
73586;DHT22;61865;50.232;18.614;2023-04-03T05:22:19;-0.40;99.90
73586;DHT22;61865;50.232;18.614;2023-04-03T05:24:42;-0.50;99.90
73586;DHT22;61865;50.232;18.614;2023-04-03T05:27:04;-0.40;99.90
73586;DHT22;61865;50.232;18.614;2023-04-03T05:29:26;-0.50;99.90
73586;DHT22;61865;50.232;18.614;2023-04-03T05:31:49;-0.50;99.90
73586;DHT22;61865;50.232;18.614;2023-04-03T05:34:12;-0.50;99.90
73586;DHT22;61865;50.232;18.614;2023-04-03T05:36:33;-0.50;99.90
73586;DHT22;61865;50.232;18.614;2023-04-03T05:38:56;-0.50;99.90
73586;DHT22;61865;50.232;18.614;2023-04-03T05:41:19;-0.50;99.90
73586;DHT22;61865;50.232;18.614;2023-04-03T05:43:42;-0.40;99.90
73586;DHT22;61865;50.232;18.614;2023-04-03T05:46:07;-0.40;99.90
73586;DHT22;61865;50.232;18.614;2023-04-03T05:48:30;-0.40;99.90
73586;DHT22;61865;50.232;18.614;2023-04-03T05:50:52;-0.40;99.90
73586;DHT22;61865;50.232;18.614;2023-04-03T05:53:17;-0.40;99.90
73586;DHT22;61865;50.232;18.614;2023-04-03T05:55:40;-0.40;99.90
73586;DHT22;61865;50.232;18.614;2023-04-03T05:58:04;-0.40;99.90
73586;DHT22;61865;50.232;18.614;2023-04-03T06:00:26;-0.40;99.90
73586;DHT22;61865;50.232;18.614;2023-04-03T06:02:48;-0.40;99.90
73586;DHT22;61865;50.232;18.614;2023-04-03T06:05:10;-0.40;99.90
73586;DHT22;61865;50.232;18.614;2023-04-03T06:07:33;-0.30;99.90
73586;DHT22;61865;50.232;18.614;2023-04-03T06:09:56;-0.20;99.90
73586;DHT22;61865;50.232;18.614;2023-04-03T06:12:19;-0.20;99.90
73586;DHT22;61865;50.232;18.614;2023-04-03T06:14:43;-0.10;99.90
73586;DHT22;61865;50.232;18.614;2023-04-03T06:17:05;-0.10;99.90
73586;DHT22;61865;50.232;18.614;2023-04-03T06:19:28;0.00;99.90
73586;DHT22;61865;50.232;18.614;2023-04-03T06:21:50;0.00;99.90
73586;DHT22;61865;50.232;18.614;2023-04-03T06:24:14;0.00;99.90
73586;DHT22;61865;50.232;18.614;2023-04-03T06:26:36;0.00;99.90
73586;DHT22;61865;50.232;18.614;2023-04-03T06:28:58;0.00;99.90
73586;DHT22;61865;50.232;18.614;2023-04-03T06:31:22;0.10;99.90
73586;DHT22;61865;50.232;18.614;2023-04-03T06:33:43;0.00;99.90
73586;DHT22;61865;50.232;18.614;2023-04-03T06:36:06;0.00;99.90
73586;DHT22;61865;50.232;18.614;2023-04-03T06:38:28;0.00;99.90
73586;DHT22;61865;50.232;18.614;2023-04-03T06:40:50;0.10;99.90
73586;DHT22;61865;50.232;18.614;2023-04-03T06:43:12;0.10;99.90
73586;DHT22;61865;50.232;18.614;2023-04-03T06:45:34;0.10;99.90
73586;DHT22;61865;50.232;18.614;2023-04-03T06:47:58;0.10;99.90
73586;DHT22;61865;50.232;18.614;2023-04-03T06:50:20;0.10;99.90
73586;DHT22;61865;50.232;18.614;2023-04-03T06:52:42;0.00;99.90
73586;DHT22;61865;50.232;18.614;2023-04-03T06:55:04;0.10;99.90
73586;DHT22;61865;50.232;18.614;2023-04-03T06:57:26;0.10;99.90
73586;DHT22;61865;50.232;18.614;2023-04-03T06:59:48;0.20;99.90
73586;DHT22;61865;50.232;18.614;2023-04-03T07:02:11;0.30;99.90
73586;DHT22;61865;50.232;18.614;2023-04-03T07:04:38;0.40;99.90
73586;DHT22;61865;50.232;18.614;2023-04-03T07:07:00;0.50;99.90
73586;DHT22;61865;50.232;18.614;2023-04-03T07:09:22;0.60;99.90
73586;DHT22;61865;50.232;18.614;2023-04-03T07:11:43;0.70;99.90
73586;DHT22;61865;50.232;18.614;2023-04-03T07:14:05;0.80;99.90
73586;DHT22;61865;50.232;18.614;2023-04-03T07:16:28;0.90;99.90
73586;DHT22;61865;50.232;18.614;2023-04-03T07:18:51;1.00;99.90
73586;DHT22;61865;50.232;18.614;2023-04-03T07:21:14;1.10;99.90
73586;DHT22;61865;50.232;18.614;2023-04-03T07:23:37;1.20;99.90
73586;DHT22;61865;50.232;18.614;2023-04-03T07:25:59;1.20;99.90
73586;DHT22;61865;50.232;18.614;2023-04-03T07:28:22;1.20;99.90
73586;DHT22;61865;50.232;18.614;2023-04-03T07:30:45;1.30;99.90
73586;DHT22;61865;50.232;18.614;2023-04-03T07:33:07;1.50;99.90
73586;DHT22;61865;50.232;18.614;2023-04-03T07:35:29;1.70;99.90
73586;DHT22;61865;50.232;18.614;2023-04-03T07:37:52;2.00;99.90
73586;DHT22;61865;50.232;18.614;2023-04-03T07:40:15;2.20;99.90
73586;DHT22;61865;50.232;18.614;2023-04-03T07:42:37;2.20;99.90
73586;DHT22;61865;50.232;18.614;2023-04-03T07:44:58;2.40;99.90
73586;DHT22;61865;50.232;18.614;2023-04-03T07:47:20;2.50;99.90
73586;DHT22;61865;50.232;18.614;2023-04-03T07:49:42;2.50;99.90
73586;DHT22;61865;50.232;18.614;2023-04-03T07:52:05;2.00;99.90
73586;DHT22;61865;50.232;18.614;2023-04-03T07:54:29;1.60;99.90
73586;DHT22;61865;50.232;18.614;2023-04-03T07:56:50;1.50;99.90
73586;DHT22;61865;50.232;18.614;2023-04-03T07:59:13;1.60;99.90
73586;DHT22;61865;50.232;18.614;2023-04-03T08:01:35;1.60;99.90
73586;DHT22;61865;50.232;18.614;2023-04-03T08:03:57;1.60;99.90
73586;DHT22;61865;50.232;18.614;2023-04-03T08:06:19;1.60;99.90
73586;DHT22;61865;50.232;18.614;2023-04-03T08:08:41;1.60;99.90
73586;DHT22;61865;50.232;18.614;2023-04-03T08:11:04;1.80;99.90
73586;DHT22;61865;50.232;18.614;2023-04-03T08:13:29;1.80;99.90
73586;DHT22;61865;50.232;18.614;2023-04-03T08:15:51;1.80;99.90
73586;DHT22;61865;50.232;18.614;2023-04-03T08:18:13;1.90;99.90
73586;DHT22;61865;50.232;18.614;2023-04-03T08:20:35;2.00;99.90
73586;DHT22;61865;50.232;18.614;2023-04-03T08:22:59;2.10;99.90
73586;DHT22;61865;50.232;18.614;2023-04-03T08:25:21;2.20;99.90
73586;DHT22;61865;50.232;18.614;2023-04-03T08:27:44;2.40;99.90
73586;DHT22;61865;50.232;18.614;2023-04-03T08:30:07;2.70;99.90
73586;DHT22;61865;50.232;18.614;2023-04-03T08:32:30;2.80;99.90
73586;DHT22;61865;50.232;18.614;2023-04-03T08:34:52;2.90;91.50
73586;DHT22;61865;50.232;18.614;2023-04-03T08:37:14;3.10;88.60
73586;DHT22;61865;50.232;18.614;2023-04-03T08:39:37;3.20;99.90
73586;DHT22;61865;50.232;18.614;2023-04-03T08:42:02;3.40;99.90
73586;DHT22;61865;50.232;18.614;2023-04-03T08:44:38;3.40;90.30
73586;DHT22;61865;50.232;18.614;2023-04-03T08:47:09;3.20;78.50
73586;DHT22;61865;50.232;18.614;2023-04-03T08:49:35;3.00;76.40
73586;DHT22;61865;50.232;18.614;2023-04-03T08:52:00;2.70;74.20
73586;DHT22;61865;50.232;18.614;2023-04-03T08:54:28;2.50;75.40
73586;DHT22;61865;50.232;18.614;2023-04-03T08:56:52;2.40;74.40
73586;DHT22;61865;50.232;18.614;2023-04-03T08:59:18;2.60;91.50
73586;DHT22;61865;50.232;18.614;2023-04-03T09:01:47;2.80;73.10
73586;DHT22;61865;50.232;18.614;2023-04-03T09:04:11;2.60;72.00
73586;DHT22;61865;50.232;18.614;2023-04-03T09:06:34;2.60;82.50
73586;DHT22;61865;50.232;18.614;2023-04-03T09:09:06;2.90;80.90
73586;DHT22;61865;50.232;18.614;2023-04-03T09:11:39;3.20;78.00
73586;DHT22;61865;50.232;18.614;2023-04-03T09:14:14;3.40;75.60
73586;DHT22;61865;50.232;18.614;2023-04-03T09:16:46;3.40;73.80
73586;DHT22;61865;50.232;18.614;2023-04-03T09:19:18;3.20;76.70
73586;DHT22;61865;50.232;18.614;2023-04-03T09:21:43;3.20;98.00
73586;DHT22;61865;50.232;18.614;2023-04-03T09:24:06;3.40;72.70
73586;DHT22;61865;50.232;18.614;2023-04-03T09:26:34;3.40;69.60
73586;DHT22;61865;50.232;18.614;2023-04-03T09:29:00;3.60;99.90
73586;DHT22;61865;50.232;18.614;2023-04-03T09:31:25;3.40;73.70
73586;DHT22;61865;50.232;18.614;2023-04-03T09:33:48;3.60;98.70
73586;DHT22;61865;50.232;18.614;2023-04-03T09:36:13;3.60;75.30
73586;DHT22;61865;50.232;18.614;2023-04-03T09:38:35;3.40;75.10
73586;DHT22;61865;50.232;18.614;2023-04-03T09:41:05;2.80;73.20
73586;DHT22;61865;50.232;18.614;2023-04-03T09:43:30;2.90;76.50
73586;DHT22;61865;50.232;18.614;2023-04-03T09:45:53;2.90;68.40
73586;DHT22;61865;50.232;18.614;2023-04-03T09:48:18;2.90;75.90
73586;DHT22;61865;50.232;18.614;2023-04-03T09:50:57;3.00;72.40
73586;DHT22;61865;50.232;18.614;2023-04-03T09:53:28;3.00;72.30
73586;DHT22;61865;50.232;18.614;2023-04-03T09:55:50;2.90;74.10
73586;DHT22;61865;50.232;18.614;2023-04-03T09:58:24;3.10;69.00
73586;DHT22;61865;50.232;18.614;2023-04-03T10:00:54;2.90;66.50
73586;DHT22;61865;50.232;18.614;2023-04-03T10:03:24;2.90;66.60
73586;DHT22;61865;50.232;18.614;2023-04-03T10:05:47;3.00;67.50
73586;DHT22;61865;50.232;18.614;2023-04-03T10:08:20;3.10;65.40
73586;DHT22;61865;50.232;18.614;2023-04-03T10:10:47;3.10;64.90
73586;DHT22;61865;50.232;18.614;2023-04-03T10:13:12;3.00;62.30
73586;DHT22;61865;50.232;18.614;2023-04-03T10:15:40;3.00;64.20
73586;DHT22;61865;50.232;18.614;2023-04-03T10:18:07;3.10;64.10
73586;DHT22;61865;50.232;18.614;2023-04-03T10:20:39;3.00;64.20
73586;DHT22;61865;50.232;18.614;2023-04-03T10:23:15;3.10;70.10
73586;DHT22;61865;50.232;18.614;2023-04-03T10:25:41;3.20;67.70
73586;DHT22;61865;50.232;18.614;2023-04-03T10:28:11;3.30;66.10
73586;DHT22;61865;50.232;18.614;2023-04-03T10:30:44;3.40;65.70
73586;DHT22;61865;50.232;18.614;2023-04-03T10:33:23;3.70;69.10
73586;DHT22;61865;50.232;18.614;2023-04-03T10:35:58;3.70;69.40
73586;DHT22;61865;50.232;18.614;2023-04-03T10:38:28;3.60;66.50
73586;DHT22;61865;50.232;18.614;2023-04-03T10:40:59;3.80;67.60
73586;DHT22;61865;50.232;18.614;2023-04-03T10:43:30;3.60;65.90
73586;DHT22;61865;50.232;18.614;2023-04-03T10:45:59;3.50;68.30
73586;DHT22;61865;50.232;18.614;2023-04-03T10:48:39;3.60;66.90
73586;DHT22;61865;50.232;18.614;2023-04-03T10:51:10;3.80;66.40
73586;DHT22;61865;50.232;18.614;2023-04-03T10:53:37;3.90;66.10
73586;DHT22;61865;50.232;18.614;2023-04-03T10:56:05;3.60;64.80
73586;DHT22;61865;50.232;18.614;2023-04-03T10:58:33;3.50;70.00
73586;DHT22;61865;50.232;18.614;2023-04-03T11:01:02;3.60;67.40
73586;DHT22;61865;50.232;18.614;2023-04-03T11:03:32;4.00;87.40
73586;DHT22;61865;50.232;18.614;2023-04-03T11:05:55;4.20;63.90
73586;DHT22;61865;50.232;18.614;2023-04-03T11:08:25;4.20;63.40
73586;DHT22;61865;50.232;18.614;2023-04-03T11:10:50;4.10;62.30
73586;DHT22;61865;50.232;18.614;2023-04-03T11:13:15;4.10;66.40
73586;DHT22;61865;50.232;18.614;2023-04-03T11:15:40;4.20;67.60
73586;DHT22;61865;50.232;18.614;2023-04-03T11:18:06;4.30;67.10
73586;DHT22;61865;50.232;18.614;2023-04-03T11:20:31;4.50;68.90
73586;DHT22;61865;50.232;18.614;2023-04-03T11:22:58;4.60;66.00
73586;DHT22;61865;50.232;18.614;2023-04-03T11:25:23;4.60;65.10
73586;DHT22;61865;50.232;18.614;2023-04-03T11:27:48;4.50;62.10
73586;DHT22;61865;50.232;18.614;2023-04-03T11:30:18;4.10;63.00
73586;DHT22;61865;50.232;18.614;2023-04-03T11:33:13;4.10;63.20
73586;DHT22;61865;50.232;18.614;2023-04-03T11:35:42;4.10;61.60
73586;DHT22;61865;50.232;18.614;2023-04-03T11:38:05;4.10;60.60
73586;DHT22;61865;50.232;18.614;2023-04-03T11:40:29;4.00;61.90
73586;DHT22;61865;50.232;18.614;2023-04-03T11:43:04;4.10;61.20
73586;DHT22;61865;50.232;18.614;2023-04-03T11:45:34;4.10;60.40
73586;DHT22;61865;50.232;18.614;2023-04-03T11:47:58;4.30;62.50
73586;DHT22;61865;50.232;18.614;2023-04-03T11:50:40;4.30;60.70
73586;DHT22;61865;50.232;18.614;2023-04-03T11:53:30;4.20;57.60
73586;DHT22;61865;50.232;18.614;2023-04-03T11:56:00;4.30;64.50
73586;DHT22;61865;50.232;18.614;2023-04-03T11:58:24;4.60;62.30
73586;DHT22;61865;50.232;18.614;2023-04-03T12:00:49;4.60;60.60
73586;DHT22;61865;50.232;18.614;2023-04-03T12:09:28;4.50;60.50
73586;DHT22;61865;50.232;18.614;2023-04-03T12:11:52;4.70;56.80
73586;DHT22;61865;50.232;18.614;2023-04-03T12:14:15;4.90;60.00
73586;DHT22;61865;50.232;18.614;2023-04-03T12:16:43;5.10;59.10
73586;DHT22;61865;50.232;18.614;2023-04-03T12:19:30;4.90;60.40
73586;DHT22;61865;50.232;18.614;2023-04-03T12:22:20;4.90;60.10
73586;DHT22;61865;50.232;18.614;2023-04-03T12:24:44;4.70;61.30
73586;DHT22;61865;50.232;18.614;2023-04-03T12:27:25;4.50;58.90
73586;DHT22;61865;50.232;18.614;2023-04-03T12:29:55;4.50;60.20
73586;DHT22;61865;50.232;18.614;2023-04-03T12:32:26;4.70;58.60
73586;DHT22;61865;50.232;18.614;2023-04-03T12:35:03;4.80;58.80
73586;DHT22;61865;50.232;18.614;2023-04-03T12:37:43;4.90;62.10
73586;DHT22;61865;50.232;18.614;2023-04-03T12:40:15;5.00;59.00
73586;DHT22;61865;50.232;18.614;2023-04-03T12:45:41;4.70;62.10
73586;DHT22;61865;50.232;18.614;2023-04-03T12:48:13;4.70;62.20
73586;DHT22;61865;50.232;18.614;2023-04-03T12:50:36;4.60;59.60
73586;DHT22;61865;50.232;18.614;2023-04-03T12:53:01;4.40;57.80
73586;DHT22;61865;50.232;18.614;2023-04-03T12:55:25;4.70;58.20
73586;DHT22;61865;50.232;18.614;2023-04-03T12:57:47;4.80;58.30
73586;DHT22;61865;50.232;18.614;2023-04-03T13:00:21;5.10;59.50
73586;DHT22;61865;50.232;18.614;2023-04-03T13:02:44;5.20;56.80
73586;DHT22;61865;50.232;18.614;2023-04-03T13:05:09;5.30;59.10
73586;DHT22;61865;50.232;18.614;2023-04-03T13:07:38;5.20;58.80
73586;DHT22;61865;50.232;18.614;2023-04-03T13:10:10;5.10;56.90
73586;DHT22;61865;50.232;18.614;2023-04-03T13:12:46;4.90;56.80
73586;DHT22;61865;50.232;18.614;2023-04-03T13:15:16;4.80;56.20
73586;DHT22;61865;50.232;18.614;2023-04-03T13:17:41;5.00;58.90
73586;DHT22;61865;50.232;18.614;2023-04-03T13:20:14;5.10;57.20
73586;DHT22;61865;50.232;18.614;2023-04-03T13:22:39;5.20;56.00
73586;DHT22;61865;50.232;18.614;2023-04-03T13:25:06;5.10;55.30
73586;DHT22;61865;50.232;18.614;2023-04-03T13:27:30;5.00;55.40
73586;DHT22;61865;50.232;18.614;2023-04-03T13:29:57;4.90;58.70
73586;DHT22;61865;50.232;18.614;2023-04-03T13:32:22;4.70;58.40
73586;DHT22;61865;50.232;18.614;2023-04-03T13:34:44;4.60;58.30
73586;DHT22;61865;50.232;18.614;2023-04-03T13:37:11;4.50;57.70
73586;DHT22;61865;50.232;18.614;2023-04-03T13:39:40;4.40;57.40
73586;DHT22;61865;50.232;18.614;2023-04-03T13:42:15;4.50;58.90
73586;DHT22;61865;50.232;18.614;2023-04-03T13:44:37;4.90;56.20
73586;DHT22;61865;50.232;18.614;2023-04-03T13:47:15;4.90;56.80
73586;DHT22;61865;50.232;18.614;2023-04-03T13:49:39;4.80;53.80
73586;DHT22;61865;50.232;18.614;2023-04-03T13:52:03;4.90;57.10
73586;DHT22;61865;50.232;18.614;2023-04-03T13:54:39;5.00;55.90
73586;DHT22;61865;50.232;18.614;2023-04-03T13:57:02;4.90;54.30
73586;DHT22;61865;50.232;18.614;2023-04-03T13:59:27;4.60;57.10
73586;DHT22;61865;50.232;18.614;2023-04-03T14:01:53;4.60;55.40
73586;DHT22;61865;50.232;18.614;2023-04-03T14:04:19;4.50;54.00
73586;DHT22;61865;50.232;18.614;2023-04-03T14:06:42;4.60;54.80
73586;DHT22;61865;50.232;18.614;2023-04-03T14:09:04;4.80;55.40
73586;DHT22;61865;50.232;18.614;2023-04-03T14:11:29;4.80;53.30
73586;DHT22;61865;50.232;18.614;2023-04-03T14:13:51;4.70;53.20
73586;DHT22;61865;50.232;18.614;2023-04-03T14:16:18;4.60;52.70
73586;DHT22;61865;50.232;18.614;2023-04-03T14:18:40;4.60;53.80
73586;DHT22;61865;50.232;18.614;2023-04-03T14:21:04;4.70;55.00
73586;DHT22;61865;50.232;18.614;2023-04-03T14:23:26;4.60;52.30
73586;DHT22;61865;50.232;18.614;2023-04-03T14:25:48;4.40;56.80
73586;DHT22;61865;50.232;18.614;2023-04-03T14:28:16;4.50;55.30
73586;DHT22;61865;50.232;18.614;2023-04-03T14:30:38;4.60;54.50
73586;DHT22;61865;50.232;18.614;2023-04-03T14:33:01;4.60;56.90
73586;DHT22;61865;50.232;18.614;2023-04-03T14:35:23;4.70;54.80
73586;DHT22;61865;50.232;18.614;2023-04-03T14:37:47;4.70;54.70
73586;DHT22;61865;50.232;18.614;2023-04-03T14:40:13;4.70;53.30
73586;DHT22;61865;50.232;18.614;2023-04-03T14:42:37;4.80;54.40
73586;DHT22;61865;50.232;18.614;2023-04-03T14:45:04;4.80;54.10
73586;DHT22;61865;50.232;18.614;2023-04-03T14:47:29;4.70;56.00
73586;DHT22;61865;50.232;18.614;2023-04-03T14:49:52;4.90;57.60
73586;DHT22;61865;50.232;18.614;2023-04-03T14:52:18;4.90;58.60
73586;DHT22;61865;50.232;18.614;2023-04-03T14:54:42;4.80;55.20
73586;DHT22;61865;50.232;18.614;2023-04-03T14:57:09;4.70;56.50
73586;DHT22;61865;50.232;18.614;2023-04-03T14:59:34;4.50;57.40
73586;DHT22;61865;50.232;18.614;2023-04-03T15:01:56;4.50;57.90
73586;DHT22;61865;50.232;18.614;2023-04-03T15:04:20;4.40;56.80
73586;DHT22;61865;50.232;18.614;2023-04-03T15:06:44;4.30;57.00
73586;DHT22;61865;50.232;18.614;2023-04-03T15:09:14;4.20;56.10
73586;DHT22;61865;50.232;18.614;2023-04-03T15:11:41;4.20;56.70
73586;DHT22;61865;50.232;18.614;2023-04-03T15:14:03;4.10;55.60
73586;DHT22;61865;50.232;18.614;2023-04-03T15:16:25;4.10;55.00
73586;DHT22;61865;50.232;18.614;2023-04-03T15:18:47;4.10;57.40
73586;DHT22;61865;50.232;18.614;2023-04-03T15:21:09;4.10;58.30